Time;durP1;ratioP1;P1;durP2;ratioP2;P2;SDS_P1;SDS_P2;PMS_P1;PMS_P2;Temp;Humidity;BMP_temperature;BMP_pressure;BME280_temperature;BME280_humidity;BME280_pressure;Samples;Min_cycle;Max_cycle;Signal;HPM_P1;HPM_P2
2022/04/10 00:02:02;;;;;;;5.13;3.80;;;7.20;99.90;;;;;;10400751;28;20206;-79
2022/04/10 00:07:04;;;;;;;5.80;4.10;;;7.20;99.90;;;;;;10377221;28;20235;-80
2022/04/10 00:12:09;;;;;;;4.40;4.00;;;7.20;99.90;;;;;;10380167;28;20619;-81
2022/04/10 00:17:11;;;;;;;4.40;4.00;;;7.20;99.90;;;;;;10346149;28;20726;-80
2022/04/10 00:22:13;;;;;;;4.57;4.07;;;7.20;99.90;;;;;;10423064;28;20293;-80
2022/04/10 00:27:17;;;;;;;5.50;4.30;;;7.20;99.90;;;;;;10361794;28;20258;-80
2022/04/10 00:32:19;;;;;;;3.37;3.10;;;7.10;99.90;;;;;;10404424;28;20195;-82
2022/04/10 00:37:21;;;;;;;5.00;4.40;;;7.10;99.90;;;;;;10403532;28;20225;-82
2022/04/10 00:42:31;;;;;;;4.13;3.83;;;7.10;99.90;;;;;;10422741;28;20594;-83
2022/04/10 00:47:34;;;;;;;4.37;4.00;;;7.10;99.90;;;;;;10372146;28;20194;-82
2022/04/10 00:52:37;;;;;;;4.53;4.17;;;7.10;99.90;;;;;;10407362;28;20221;-82
2022/04/10 00:57:41;;;;;;;4.97;4.40;;;7.00;99.90;;;;;;10378188;28;20218;-80
2022/04/10 01:02:43;;;;;;;4.67;4.30;;;7.00;99.90;;;;;;10407173;28;20252;-80
2022/04/10 01:07:45;;;;;;;4.57;4.27;;;7.10;99.90;;;;;;10362012;28;20203;-80
2022/04/10 01:12:49;;;;;;;5.03;4.63;;;7.10;99.90;;;;;;10414928;28;20309;-80
2022/04/10 01:17:57;;;;;;;7.13;4.50;;;7.10;99.90;;;;;;10361582;28;20498;-78
2022/04/10 01:23:02;;;;;;;4.73;4.20;;;7.00;99.90;;;;;;10394734;28;20375;-80
2022/04/10 01:28:12;;;;;;;5.80;4.43;;;7.00;99.90;;;;;;10372367;28;20718;-79
2022/04/10 01:33:14;;;;;;;5.23;4.30;;;7.00;99.90;;;;;;10397888;28;20210;-80
2022/04/10 01:38:21;;;;;;;5.50;4.80;;;7.00;99.90;;;;;;10374855;28;20321;-80
2022/04/10 01:43:27;;;;;;;5.77;4.70;;;7.10;99.90;;;;;;10398068;28;20256;-80
2022/04/10 01:48:30;;;;;;;4.80;3.83;;;7.10;99.90;;;;;;10367591;28;20206;-80
2022/04/10 01:53:34;;;;;;;4.97;4.50;;;7.10;99.90;;;;;;10358928;28;20234;-80
2022/04/10 01:58:39;;;;;;;4.50;4.10;;;7.20;99.90;;;;;;10350982;28;20242;-80
2022/04/10 02:03:43;;;;;;;5.13;4.53;;;7.20;99.90;;;;;;10349346;28;20222;-80
2022/04/10 02:08:47;;;;;;;5.70;5.10;;;7.20;99.90;;;;;;10371332;28;20206;-81
2022/04/10 02:13:51;;;;;;;5.17;4.43;;;7.10;99.90;;;;;;10356492;28;20217;-79
2022/04/10 02:18:53;;;;;;;4.97;4.50;;;7.20;99.90;;;;;;10361144;28;20219;-82
2022/04/10 02:23:57;;;;;;;4.90;4.50;;;7.10;99.90;;;;;;10349220;28;20289;-80
2022/04/10 02:29:00;;;;;;;5.00;4.60;;;7.00;99.90;;;;;;10349577;28;20629;-82
2022/04/10 02:34:02;;;;;;;4.80;4.13;;;7.00;99.90;;;;;;10357607;28;20245;-82
2022/04/10 02:39:05;;;;;;;5.43;4.93;;;7.00;99.90;;;;;;10364844;28;20225;-81
2022/04/10 02:44:08;;;;;;;5.10;4.63;;;6.90;99.90;;;;;;10395135;28;20207;-80
2022/04/10 02:49:10;;;;;;;4.90;4.50;;;6.90;99.90;;;;;;10354160;28;20194;-80
2022/04/10 02:54:14;;;;;;;5.50;4.60;;;6.80;99.90;;;;;;10361284;28;20230;-80
2022/04/10 02:59:16;;;;;;;5.47;4.97;;;6.70;99.90;;;;;;10399223;28;20214;-80
2022/04/10 03:04:18;;;;;;;7.77;4.97;;;6.70;99.90;;;;;;10360131;28;20630;-80
2022/04/10 03:09:22;;;;;;;5.00;4.53;;;6.60;99.90;;;;;;10352237;28;20229;-80
2022/04/10 03:14:27;;;;;;;5.40;5.00;;;6.60;99.90;;;;;;10348572;28;20348;-80
2022/04/10 03:19:29;;;;;;;4.13;3.53;;;6.50;99.90;;;;;;10400842;28;20226;-80
2022/04/10 03:24:35;;;;;;;6.30;4.70;;;6.50;99.90;;;;;;10375708;28;20261;-81
2022/04/10 03:29:38;;;;;;;6.17;5.50;;;6.40;99.90;;;;;;10382899;28;20228;-82
2022/04/10 03:34:40;;;;;;;5.20;4.80;;;6.30;99.90;;;;;;10396239;28;20710;-81
2022/04/10 03:39:44;;;;;;;5.10;4.70;;;6.20;99.90;;;;;;10404696;28;20222;-80
2022/04/10 03:44:47;;;;;;;5.13;4.70;;;6.10;99.90;;;;;;10372095;28;20794;-80
2022/04/10 03:49:50;;;;;;;6.67;5.00;;;6.00;99.90;;;;;;10407419;28;20697;-79
2022/04/10 03:54:54;;;;;;;4.97;4.57;;;5.90;99.90;;;;;;10421479;22;20772;-80
2022/04/10 03:59:56;;;;;;;5.70;5.20;;;5.70;99.90;;;;;;10423337;28;20701;-79
2022/04/10 04:04:59;;;;;;;6.97;5.40;;;5.60;99.90;;;;;;10402212;28;20264;-79
2022/04/10 04:10:03;;;;;;;5.40;5.00;;;5.50;99.90;;;;;;10399452;28;20200;-79
2022/04/10 04:15:08;;;;;;;6.00;5.57;;;5.40;99.90;;;;;;10399386;28;20218;-78
2022/04/10 04:20:11;;;;;;;7.03;6.13;;;5.40;99.90;;;;;;10399152;28;20222;-78
2022/04/10 04:25:15;;;;;;;6.70;6.03;;;5.40;99.90;;;;;;10398629;28;20576;-78
2022/04/10 04:30:19;;;;;;;7.17;6.20;;;5.50;99.90;;;;;;10398754;28;20193;-78
2022/04/10 04:35:24;;;;;;;7.90;7.10;;;5.60;99.90;;;;;;10398140;28;20224;-79
2022/04/10 04:40:28;;;;;;;7.63;6.93;;;5.60;99.90;;;;;;10385127;28;20252;-79
2022/04/10 04:45:30;;;;;;;7.50;6.90;;;5.70;99.90;;;;;;10403407;28;20717;-78
2022/04/10 04:50:39;;;;;;;8.10;7.30;;;5.70;99.90;;;;;;10381535;28;20194;-77
2022/04/10 04:55:45;;;;;;;7.67;7.07;;;5.80;99.90;;;;;;10403067;28;20289;-80
2022/04/10 05:00:47;;;;;;;9.17;7.00;;;5.90;99.90;;;;;;10387663;28;20202;-80
2022/04/10 05:05:50;;;;;;;10.07;7.77;;;6.00;99.90;;;;;;10387101;28;20276;-79
2022/04/10 05:10:59;;;;;;;8.30;7.70;;;6.20;99.90;;;;;;10406460;28;20198;-79
2022/04/10 05:16:02;;;;;;;7.63;7.03;;;6.30;99.90;;;;;;10420903;28;20689;-78
2022/04/10 05:21:09;;;;;;;7.93;7.27;;;6.40;99.90;;;;;;10411596;28;20216;-78
2022/04/10 05:26:13;;;;;;;7.33;6.80;;;6.60;99.90;;;;;;10403975;28;20221;-78
2022/04/10 05:31:19;;;;;;;8.40;7.80;;;6.70;99.90;;;;;;10403450;28;20202;-79
2022/04/10 05:36:23;;;;;;;8.10;7.30;;;6.80;99.90;;;;;;10403401;28;20225;-79
2022/04/10 05:41:29;;;;;;;7.37;6.67;;;6.90;99.90;;;;;;10386902;28;20220;-78
2022/04/10 05:46:38;;;;;;;9.43;7.10;;;7.00;99.90;;;;;;10403545;28;20296;-79
2022/04/10 05:51:42;;;;;;;7.00;6.30;;;7.10;99.90;;;;;;10403992;28;20205;-79
2022/04/10 05:56:45;;;;;;;7.43;6.83;;;7.20;99.90;;;;;;10386770;28;20650;-78
2022/04/10 06:01:48;;;;;;;7.33;6.70;;;7.20;99.90;;;;;;10403045;28;20280;-79
2022/04/10 06:06:53;;;;;;;6.77;6.27;;;7.20;99.90;;;;;;10403111;28;20300;-78
2022/04/10 06:12:10;;;;;;;7.60;6.50;;;7.20;99.90;;;;;;10406389;28;20244;-79
2022/04/10 06:17:18;;;;;;;7.23;6.53;;;7.30;99.90;;;;;;10403898;28;20242;-79
2022/04/10 06:22:23;;;;;;;6.47;5.80;;;7.40;99.90;;;;;;10411477;28;20292;-79
2022/04/10 06:27:26;;;;;;;7.20;6.70;;;7.70;99.90;;;;;;10404668;28;20214;-79
2022/04/10 06:32:29;;;;;;;6.20;5.70;;;7.90;99.90;;;;;;10404269;28;20220;-79
2022/04/10 06:37:36;;;;;;;6.30;5.90;;;8.10;99.90;;;;;;10391052;28;20232;-79
2022/04/10 06:42:41;;;;;;;6.70;6.20;;;8.40;99.90;;;;;;10400348;28;20293;-79
2022/04/10 06:48:07;;;;;;;6.07;5.57;;;8.60;99.90;;;;;;10405869;28;20201;-80
2022/04/10 06:53:17;;;;;;;6.03;5.53;;;8.80;99.90;;;;;;10406755;28;20233;-80
2022/04/10 06:58:22;;;;;;;9.87;6.30;;;9.00;99.90;;;;;;10381020;28;20245;-80
2022/04/10 07:03:26;;;;;;;5.30;4.90;;;9.20;99.90;;;;;;10394891;28;20252;-79
2022/04/10 07:08:29;;;;;;;5.33;4.73;;;9.40;99.90;;;;;;10398564;28;20673;-80
2022/04/10 07:13:32;;;;;;;5.80;5.30;;;9.60;99.90;;;;;;10396611;28;20590;-80
2022/04/10 07:18:36;;;;;;;5.30;4.70;;;9.80;99.90;;;;;;10364435;28;21011;-79
2022/04/10 07:23:45;;;;;;;6.00;4.40;;;9.90;99.90;;;;;;10396655;28;20217;-80
2022/04/10 07:29:04;;;;;;;5.67;5.10;;;10.20;99.90;;;;;;10404273;28;20201;-79
2022/04/10 07:34:07;;;;;;;5.20;4.90;;;10.40;99.90;;;;;;10387516;28;20222;-80
2022/04/10 07:39:38;;;;;;;6.17;5.50;;;10.50;99.90;;;;;;10372688;28;20230;-80
2022/04/10 07:44:56;;;;;;;5.57;4.70;;;10.70;99.90;;;;;;10405057;28;20307;-80
2022/04/10 07:50:01;;;;;;;5.63;5.13;;;10.80;99.90;;;;;;10406945;28;20273;-80
2022/04/10 07:55:04;;;;;;;5.00;4.50;;;11.00;99.90;;;;;;10383879;28;20288;-80
2022/04/10 08:00:13;;;;;;;5.13;4.73;;;11.10;99.90;;;;;;10385358;28;20244;-80
2022/04/10 08:05:22;;;;;;;6.57;4.83;;;11.40;99.90;;;;;;10404591;28;20221;-79
2022/04/10 08:10:43;;;;;;;8.87;4.83;;;11.60;99.90;;;;;;10403907;28;20201;-81
2022/04/10 08:15:48;;;;;;;5.63;5.23;;;11.80;99.90;;;;;;10403008;28;20297;-81
2022/04/10 08:20:51;;;;;;;5.40;5.00;;;12.00;99.90;;;;;;10400747;28;20214;-78
2022/04/10 08:25:53;;;;;;;5.30;4.80;;;12.20;99.90;;;;;;10416610;28;20339;-78
2022/04/10 08:30:57;;;;;;;4.90;4.60;;;12.40;99.90;;;;;;10421095;28;20285;-80
2022/04/10 08:35:59;;;;;;;5.50;5.10;;;12.40;99.90;;;;;;10421136;28;20206;-80
2022/04/10 08:41:03;;;;;;;7.07;5.40;;;12.40;99.90;;;;;;10403178;28;20239;-80
2022/04/10 08:46:08;;;;;;;5.67;5.03;;;12.40;99.90;;;;;;10418155;28;20700;-80
2022/04/10 08:51:10;;;;;;;5.67;5.17;;;12.50;99.90;;;;;;10420000;28;20198;-80
2022/04/10 08:56:12;;;;;;;5.30;4.80;;;12.60;99.90;;;;;;10404867;28;20249;-81
2022/04/10 09:01:19;;;;;;;5.27;4.77;;;12.60;99.80;;;;;;10398644;28;20213;-80
2022/04/10 09:06:21;;;;;;;4.67;4.20;;;12.70;99.30;;;;;;10417249;28;20221;-80
2022/04/10 09:11:30;;;;;;;5.83;4.77;;;12.50;99.90;;;;;;10419759;28;20186;-80
2022/04/10 09:16:34;;;;;;;4.93;4.50;;;12.70;99.90;;;;;;10401565;28;20982;-79
2022/04/10 09:21:38;;;;;;;5.33;4.93;;;12.90;99.60;;;;;;10403862;28;20220;-80
2022/04/10 09:26:45;;;;;;;5.20;4.70;;;12.90;99.30;;;;;;10386218;28;20305;-79
2022/04/10 09:31:54;;;;;;;4.80;4.40;;;12.90;98.70;;;;;;10421205;28;20583;-79
2022/04/10 09:37:00;;;;;;;5.60;4.97;;;12.60;99.90;;;;;;10416737;28;20210;-79
2022/04/10 09:42:06;;;;;;;5.90;4.47;;;12.20;99.90;;;;;;10419613;28;20768;-79
2022/04/10 09:47:11;;;;;;;8.10;4.90;;;11.90;99.90;;;;;;10417699;28;20297;-80
2022/04/10 09:52:15;;;;;;;5.10;4.70;;;11.70;99.90;;;;;;10410814;28;20198;-80
2022/04/10 09:57:19;;;;;;;5.30;4.80;;;11.70;99.90;;;;;;10408853;28;20217;-78
2022/04/10 10:02:23;;;;;;;5.07;4.60;;;11.80;99.90;;;;;;10404901;28;20232;-79
2022/04/10 10:07:26;;;;;;;3.77;3.47;;;12.20;99.90;;;;;;10389425;28;20238;-79
2022/04/10 10:12:28;;;;;;;4.20;3.90;;;12.50;99.90;;;;;;10399565;28;20236;-79
2022/04/10 10:17:43;;;;;;;6.40;3.70;;;12.50;99.40;;;;;;10388201;28;20226;-79
2022/04/10 10:22:45;;;;;;;5.87;4.20;;;12.30;99.90;;;;;;10395492;28;20217;-79
2022/04/10 10:28:28;;;;;;;4.17;3.80;;;12.40;99.50;;;;;;10398943;28;20630;-79
2022/04/10 10:33:34;;;;;;;6.20;4.17;;;12.70;98.20;;;;;;10417452;28;20221;-79
2022/04/10 10:38:37;;;;;;;4.83;4.30;;;12.70;95.10;;;;;;10399352;28;20218;-79
2022/04/10 10:43:40;;;;;;;5.87;4.80;;;12.30;97.10;;;;;;10399751;28;20690;-79
2022/04/10 10:48:43;;;;;;;5.47;5.00;;;12.00;98.20;;;;;;10414704;28;20198;-79
2022/04/10 10:53:47;;;;;;;9.70;5.20;;;11.80;98.10;;;;;;10388651;28;20694;-80
2022/04/10 10:58:59;;;;;;;6.70;5.63;;;11.70;99.90;;;;;;10385707;28;20221;-77
2022/04/10 11:04:06;;;;;;;5.63;5.13;;;11.60;99.40;;;;;;10403563;28;20319;-78
2022/04/10 11:09:29;;;;;;;5.57;5.03;;;11.60;99.90;;;;;;10382634;28;20662;-79
2022/04/10 11:14:32;;;;;;;5.57;5.07;;;11.60;99.90;;;;;;10383479;28;20337;-79
2022/04/10 11:19:36;;;;;;;5.93;3.90;;;11.50;99.90;;;;;;10403868;28;20720;-80
2022/04/10 11:24:38;;;;;;;4.70;4.40;;;11.40;99.90;;;;;;10407483;28;20773;-79
2022/04/10 11:29:49;;;;;;;5.27;4.87;;;11.40;99.90;;;;;;10390485;28;20197;-80
2022/04/10 11:35:00;;;;;;;5.33;4.83;;;11.50;99.90;;;;;;10383041;28;20716;-78
2022/04/10 11:40:04;;;;;;;4.90;4.10;;;11.70;99.70;;;;;;10367743;28;20226;-80
2022/04/10 11:45:08;;;;;;;4.80;4.40;;;11.90;93.30;;;;;;10373576;28;20224;-78
2022/04/10 11:50:13;;;;;;;4.43;4.13;;;11.90;98.00;;;;;;10375490;28;20713;-78
2022/04/10 11:55:18;;;;;;;5.23;4.50;;;11.70;95.40;;;;;;10383312;28;20226;-78
2022/04/10 12:00:20;;;;;;;6.33;5.27;;;11.40;93.80;;;;;;10384783;28;20245;-78
2022/04/10 12:05:30;;;;;;;4.50;4.10;;;11.30;97.40;;;;;;10379731;28;20783;-78
2022/04/10 12:10:33;;;;;;;4.50;4.10;;;11.40;97.00;;;;;;10402582;28;20198;-79
2022/04/10 12:15:35;;;;;;;4.90;4.40;;;11.40;98.70;;;;;;10408219;28;20218;-79
2022/04/10 12:20:40;;;;;;;6.93;5.40;;;11.30;99.90;;;;;;10415831;28;20256;-78
2022/04/10 12:25:42;;;;;;;5.00;4.63;;;11.20;99.90;;;;;;10397367;28;20226;-79
2022/04/10 12:30:46;;;;;;;6.03;4.90;;;11.30;99.90;;;;;;10418443;28;20719;-79
2022/04/10 12:35:49;;;;;;;8.30;5.03;;;11.60;99.60;;;;;;10390860;28;20254;-79
2022/04/10 12:41:03;;;;;;;6.43;5.30;;;11.80;99.50;;;;;;10417108;28;20217;-79
2022/04/10 12:46:10;;;;;;;6.70;5.10;;;11.90;98.60;;;;;;10380005;28;20248;-79
2022/04/10 12:51:14;;;;;;;6.43;5.30;;;12.00;97.50;;;;;;10395969;28;20202;-79
2022/04/10 12:56:21;;;;;;;6.27;4.73;;;12.00;97.90;;;;;;10393366;28;20713;-79
2022/04/10 13:01:27;;;;;;;7.67;5.20;;;12.10;99.90;;;;;;10393427;28;20232;-78
2022/04/10 13:06:52;;;;;;;4.67;4.07;;;12.20;99.80;;;;;;10400032;28;20228;-79
2022/04/10 13:11:54;;;;;;;9.00;4.50;;;12.30;98.60;;;;;;10415645;28;20221;-79
2022/04/10 13:17:04;;;;;;;4.33;3.93;;;12.40;97.00;;;;;;10404216;28;20653;-79
2022/04/10 13:22:08;;;;;;;4.73;4.33;;;12.40;97.30;;;;;;10416288;28;20292;-78
2022/04/10 13:27:11;;;;;;;5.43;4.50;;;12.40;98.80;;;;;;10379306;28;20225;-79
2022/04/10 13:32:13;;;;;;;4.60;4.20;;;12.30;99.30;;;;;;10402975;28;20202;-79
2022/04/10 13:37:17;;;;;;;4.00;3.70;;;12.30;97.30;;;;;;10398941;28;20631;-79
2022/04/10 13:42:20;;;;;;;5.00;4.50;;;12.20;97.60;;;;;;10402069;28;20218;-78
2022/04/10 13:47:22;;;;;;;4.40;4.00;;;12.20;98.80;;;;;;10403513;28;20209;-78
2022/04/10 13:52:25;;;;;;;5.10;4.70;;;12.30;98.50;;;;;;10386366;28;20288;-79
2022/04/10 13:57:28;;;;;;;4.77;4.33;;;12.40;97.40;;;;;;10385065;28;20713;-79
2022/04/10 14:02:30;;;;;;;4.53;4.10;;;12.40;99.90;;;;;;10397085;28;20256;-78
2022/04/10 14:07:34;;;;;;;4.53;4.23;;;12.30;99.00;;;;;;10359291;28;20225;-78
2022/04/10 14:12:36;;;;;;;4.03;3.70;;;12.40;98.90;;;;;;10406073;28;20202;-78
2022/04/10 14:17:39;;;;;;;4.83;3.83;;;12.40;98.50;;;;;;10403127;28;20228;-79
2022/04/10 14:22:42;;;;;;;4.43;3.93;;;12.40;99.00;;;;;;10405955;28;20287;-79
2022/04/10 14:27:44;;;;;;;4.60;4.17;;;12.40;99.20;;;;;;10393705;28;20245;-80
2022/04/10 14:32:47;;;;;;;4.20;3.80;;;12.20;99.90;;;;;;10378266;28;20198;-80
2022/04/10 14:37:50;;;;;;;4.40;4.00;;;12.10;99.90;;;;;;10417801;28;20204;-80
2022/04/10 14:42:53;;;;;;;4.00;3.67;;;12.00;99.90;;;;;;10415445;28;20205;-80
2022/04/10 14:47:55;;;;;;;7.00;4.40;;;11.90;99.90;;;;;;10394348;28;20305;-79
2022/04/10 14:52:58;;;;;;;3.97;3.70;;;11.90;99.90;;;;;;10409743;28;20566;-80
2022/04/10 14:58:00;;;;;;;3.67;3.30;;;11.80;99.90;;;;;;10402562;28;20558;-80
2022/04/10 15:03:03;;;;;;;4.03;3.70;;;11.70;99.90;;;;;;10384378;28;20340;-80
2022/04/10 15:08:07;;;;;;;4.67;3.67;;;11.70;99.90;;;;;;10411149;28;20198;-80
2022/04/10 15:13:11;;;;;;;3.47;3.17;;;11.60;99.20;;;;;;10389399;28;20253;-79
2022/04/10 15:18:13;;;;;;;3.57;3.37;;;11.60;99.90;;;;;;10391769;28;20217;-80
2022/04/10 15:23:17;;;;;;;4.20;3.80;;;11.50;99.90;;;;;;10408839;28;20235;-80
2022/04/10 15:28:19;;;;;;;4.40;4.00;;;11.50;97.40;;;;;;10389010;28;20588;-80
2022/04/10 15:33:21;;;;;;;5.73;4.23;;;11.40;99.90;;;;;;10410081;28;20241;-80
2022/04/10 15:38:25;;;;;;;4.90;4.30;;;11.30;99.20;;;;;;10373077;28;20214;-79
2022/04/10 15:43:27;;;;;;;5.13;4.40;;;11.30;99.90;;;;;;10377925;28;20244;-79
2022/04/10 15:48:30;;;;;;;5.40;4.30;;;11.30;99.10;;;;;;10373910;28;20194;-79
2022/04/10 15:53:33;;;;;;;6.53;5.87;;;11.30;99.50;;;;;;10440018;22;20226;-83
2022/04/10 15:58:35;;;;;;;5.57;5.07;;;11.30;99.00;;;;;;10387154;28;20245;-83
2022/04/10 16:03:38;;;;;;;7.20;4.97;;;11.20;98.90;;;;;;10388059;28;20249;-82
2022/04/10 16:08:44;;;;;;;5.50;5.00;;;11.10;99.90;;;;;;10348800;28;20218;-82
2022/04/10 16:13:48;;;;;;;5.77;5.30;;;11.10;99.90;;;;;;10350534;28;20225;-82
2022/04/10 16:18:50;;;;;;;6.43;5.47;;;11.10;99.90;;;;;;10362779;28;20211;-82
2022/04/10 16:23:54;;;;;;;6.03;5.47;;;11.10;99.90;;;;;;10379175;28;20225;-82
2022/04/10 16:34:19;;;;;;;5.40;4.97;;;10.90;98.90;;;;;;10364471;28;20221;-82
2022/04/10 16:39:23;;;;;;;8.30;5.00;;;10.70;99.80;;;;;;10371697;28;20206;-82
2022/04/10 16:44:27;;;;;;;6.87;5.13;;;10.60;99.90;;;;;;10370930;28;20248;-82
2022/04/10 16:49:30;;;;;;;6.10;5.50;;;10.50;99.90;;;;;;10365324;28;20195;-82
2022/04/10 16:54:50;;;;;;;5.20;4.70;;;10.50;99.90;;;;;;10344070;28;20442;-82
2022/04/10 16:59:53;;;;;;;5.37;4.80;;;10.60;99.90;;;;;;10371949;28;20757;-82
2022/04/10 17:04:57;;;;;;;5.70;5.20;;;10.60;99.90;;;;;;10370393;28;20222;-82
2022/04/10 17:10:01;;;;;;;5.03;4.63;;;10.70;99.90;;;;;;10369220;28;20220;-82
2022/04/10 17:15:04;;;;;;;5.63;5.13;;;10.60;98.80;;;;;;10372804;28;20284;-82
2022/04/10 17:20:09;;;;;;;5.37;4.73;;;10.50;99.90;;;;;;10353044;28;20202;-82
2022/04/10 17:25:13;;;;;;;5.90;4.23;;;10.50;99.90;;;;;;10370232;28;20270;-82
2022/04/10 17:30:15;;;;;;;6.47;4.97;;;10.50;99.90;;;;;;10360497;28;20706;-81
2022/04/10 17:35:17;;;;;;;5.97;5.10;;;10.40;99.90;;;;;;10359661;28;20218;-81
2022/04/10 17:40:21;;;;;;;5.20;4.47;;;10.40;99.90;;;;;;10382893;28;20218;-81
2022/04/10 17:45:23;;;;;;;6.83;5.43;;;10.40;99.90;;;;;;10364116;28;20231;-81
2022/04/10 17:50:25;;;;;;;6.13;5.60;;;10.30;99.90;;;;;;10370013;28;20194;-81
2022/04/10 17:55:29;;;;;;;5.80;5.30;;;10.20;99.90;;;;;;10369868;28;20225;-80
2022/04/10 18:00:31;;;;;;;5.33;4.83;;;10.20;99.90;;;;;;10394245;28;20264;-83
2022/04/10 18:05:33;;;;;;;5.60;5.10;;;10.00;99.90;;;;;;10350376;28;20633;-82
2022/04/10 18:10:37;;;;;;;5.10;4.60;;;9.90;99.90;;;;;;10373118;28;20278;-82
2022/04/10 18:15:39;;;;;;;6.20;5.40;;;9.80;99.90;;;;;;10372685;28;20272;-83
2022/04/10 18:20:41;;;;;;;6.63;6.10;;;9.70;99.90;;;;;;10350747;28;20246;-83
2022/04/10 18:25:48;;;;;;;6.33;5.83;;;9.60;99.90;;;;;;10330267;28;20699;-83
2022/04/10 18:30:50;;;;;;;5.20;4.80;;;9.40;99.90;;;;;;10348896;28;20198;-83
2022/04/10 18:35:56;;;;;;;4.83;4.53;;;9.30;99.90;;;;;;10354503;28;20885;-83
2022/04/10 18:41:00;;;;;;;6.23;5.63;;;9.10;99.90;;;;;;10350628;28;20697;-82
2022/04/10 18:46:02;;;;;;;6.10;5.57;;;8.90;99.90;;;;;;10353065;28;20218;-83
2022/04/10 18:51:05;;;;;;;9.17;5.93;;;8.80;99.90;;;;;;10358142;28;20241;-82
2022/04/10 18:56:08;;;;;;;8.60;5.40;;;8.70;99.90;;;;;;10329547;28;20711;-83
2022/04/10 19:01:11;;;;;;;8.77;5.90;;;8.60;99.90;;;;;;10346179;28;20553;-81
2022/04/10 19:06:13;;;;;;;6.40;5.80;;;8.50;99.90;;;;;;10334211;28;20242;-82
2022/04/10 19:11:16;;;;;;;6.33;5.73;;;8.40;99.90;;;;;;10353337;28;20198;-82
2022/04/10 19:16:19;;;;;;;5.77;5.37;;;8.30;99.90;;;;;;10344929;28;20218;-81
2022/04/10 19:21:21;;;;;;;6.30;5.80;;;8.20;99.90;;;;;;10369088;28;20218;-83
2022/04/10 19:26:25;;;;;;;6.90;5.70;;;8.10;99.90;;;;;;10396793;28;20230;-81
2022/04/10 19:31:27;;;;;;;7.10;6.40;;;8.00;99.90;;;;;;10348274;28;20832;-82
2022/04/10 19:36:29;;;;;;;6.90;5.63;;;7.90;99.90;;;;;;10386839;28;20218;-81
2022/04/10 19:41:33;;;;;;;5.70;5.20;;;7.80;99.90;;;;;;10371290;28;20234;-80
2022/04/10 19:46:37;;;;;;;7.37;6.67;;;7.80;99.90;;;;;;10350199;28;20260;-81
2022/04/10 19:51:39;;;;;;;6.37;5.77;;;7.80;99.90;;;;;;10348826;28;20225;-81
2022/04/10 19:56:43;;;;;;;6.53;5.93;;;7.70;99.90;;;;;;10369688;28;20403;-81
2022/04/10 20:01:47;;;;;;;8.13;6.43;;;7.70;99.90;;;;;;10340417;28;20217;-82
2022/04/10 20:06:50;;;;;;;7.10;6.50;;;7.70;99.90;;;;;;10381378;28;20225;-83
2022/04/10 20:11:53;;;;;;;6.93;6.07;;;7.60;99.90;;;;;;10364590;28;20310;-81
2022/04/10 20:16:55;;;;;;;6.70;6.20;;;7.50;99.90;;;;;;10344966;28;20215;-81
2022/04/10 20:21:57;;;;;;;6.80;6.10;;;7.50;99.90;;;;;;10336653;28;20215;-81
2022/04/10 20:27:01;;;;;;;6.83;5.70;;;7.40;99.90;;;;;;10359224;28;20230;-82
2022/04/10 20:32:04;;;;;;;6.80;6.10;;;7.40;99.90;;;;;;10364832;28;20615;-82
2022/04/10 20:37:06;;;;;;;6.30;5.70;;;7.30;99.90;;;;;;10349335;28;20218;-82
2022/04/10 20:42:10;;;;;;;6.00;5.40;;;7.20;99.90;;;;;;10393904;28;20558;-81
2022/04/10 20:47:12;;;;;;;6.10;5.50;;;7.10;99.90;;;;;;10373420;28;20218;-82
2022/04/10 20:52:14;;;;;;;5.97;5.43;;;7.00;99.90;;;;;;10350005;28;20187;-82
2022/04/10 20:57:17;;;;;;;5.87;5.37;;;6.90;99.90;;;;;;10366820;28;20226;-82
2022/04/10 21:02:20;;;;;;;6.17;5.57;;;6.90;99.90;;;;;;10365982;28;20258;-82
2022/04/10 21:07:22;;;;;;;5.70;5.20;;;7.00;99.90;;;;;;10365368;28;20270;-84
2022/04/10 21:12:26;;;;;;;5.07;4.63;;;7.00;99.90;;;;;;10341018;28;20200;-84
2022/04/10 21:17:28;;;;;;;6.23;4.83;;;7.10;99.90;;;;;;10344602;28;20218;-82
2022/04/10 21:22:30;;;;;;;6.37;5.20;;;7.10;99.90;;;;;;10377052;28;20238;-84
2022/04/10 21:27:34;;;;;;;5.03;4.60;;;7.00;99.90;;;;;;10405213;28;20753;-84
2022/04/10 21:32:36;;;;;;;9.80;4.90;;;6.90;99.90;;;;;;10402450;28;20202;-83
2022/04/10 21:37:38;;;;;;;7.00;5.23;;;6.90;99.90;;;;;;10365474;28;20223;-83
2022/04/10 21:42:41;;;;;;;5.60;5.10;;;6.80;99.90;;;;;;10352628;28;20219;-84
2022/04/10 21:47:50;;;;;;;5.70;5.30;;;6.80;99.90;;;;;;10367582;28;20253;-82
2022/04/10 21:52:52;;;;;;;5.80;5.30;;;6.80;99.90;;;;;;10349110;28;20199;-82
2022/04/10 21:57:58;;;;;;;7.30;5.53;;;6.80;99.90;;;;;;10376165;23;20277;-79
2022/04/10 22:03:00;;;;;;;5.50;5.00;;;6.80;99.90;;;;;;10374833;28;20257;-80
2022/04/10 22:08:02;;;;;;;7.57;5.77;;;6.80;99.90;;;;;;10370516;28;20265;-80
2022/04/10 22:13:10;;;;;;;9.60;6.10;;;6.80;99.90;;;;;;10383070;28;20203;-79
2022/04/10 22:18:12;;;;;;;5.40;5.00;;;6.80;99.90;;;;;;10364311;28;20292;-78
2022/04/10 22:23:16;;;;;;;6.20;5.40;;;6.80;99.90;;;;;;10367964;28;20246;-78
2022/04/10 22:28:20;;;;;;;5.73;5.23;;;6.70;99.90;;;;;;10372827;28;20202;-78
2022/04/10 22:33:22;;;;;;;5.90;5.40;;;6.70;99.90;;;;;;10360167;28;20199;-78
2022/04/10 22:38:24;;;;;;;6.10;5.60;;;6.60;99.90;;;;;;10360570;28;20238;-78
2022/04/10 22:43:28;;;;;;;6.10;5.63;;;6.50;99.90;;;;;;10366276;28;20658;-78
2022/04/10 22:48:30;;;;;;;7.33;5.80;;;6.40;99.90;;;;;;10372648;28;20289;-78
2022/04/10 22:53:32;;;;;;;6.20;5.70;;;6.40;99.90;;;;;;10364802;28;20203;-78
2022/04/10 22:58:35;;;;;;;6.10;5.67;;;6.30;99.90;;;;;;10366100;28;20206;-78
2022/04/10 23:03:38;;;;;;;5.80;5.40;;;6.40;99.90;;;;;;10363172;28;20226;-78
2022/04/10 23:08:40;;;;;;;7.23;6.60;;;6.40;99.90;;;;;;10365005;28;20194;-78
2022/04/10 23:13:44;;;;;;;6.20;5.60;;;6.40;99.90;;;;;;10379796;28;20218;-79
2022/04/10 23:18:46;;;;;;;5.90;5.40;;;6.30;99.90;;;;;;10381662;28;20206;-80
2022/04/10 23:23:48;;;;;;;6.77;6.07;;;6.30;99.90;;;;;;10395650;28;20690;-80
2022/04/10 23:28:52;;;;;;;5.67;5.20;;;6.30;99.90;;;;;;10387308;28;20670;-80
2022/04/10 23:33:54;;;;;;;6.50;5.20;;;6.30;99.90;;;;;;10392063;28;20218;-80
2022/04/10 23:39:02;;;;;;;5.73;5.33;;;6.20;99.90;;;;;;10377142;28;20566;-80
2022/04/10 23:44:08;;;;;;;6.30;5.70;;;6.20;99.90;;;;;;10374831;28;20662;-80
2022/04/10 23:49:10;;;;;;;7.57;5.20;;;6.10;99.90;;;;;;10383679;28;20297;-78
2022/04/10 23:54:13;;;;;;;5.60;5.20;;;6.10;99.90;;;;;;10370076;28;20246;-78
2022/04/10 23:59:16;;;;;;;6.53;5.90;;;6.10;99.90;;;;;;10370105;28;20249;-80
